Private Wetterstation Wechselburg
Wetterdaten: Samstag / Sonntag, 27.07.2014
Datum Zeit Temp. +2m Bodentemp. Temp.+5cm Temp. Wind Windchill X Diff Temp. Feuchte +2m Feuchte +5cm Sonnenschein Luftdruck Regen Wind Richtung Richtung Sonnenschein UV Taupunkt Windchill Windben
26.07.2014 01:00 14,6 C 24,2 C 15,8 C 15,0 C 15,0 C 0,4 C 90 % 91 % 0 % 1010,8 hPa 0,0 l/m 0,0 km/h (0 Bft) O-NO 67 0 min 0,0 UV-I 13,0 C 15,0 C 0,0 km/h (0 Bft)
26.07.2014 01:05 14,6 C 24,2 C 15,9 C 15,0 C 15,0 C 0,4 C 90 % 91 % 0 % 1010,8 hPa 0,0 l/m 0,0 km/h (0 Bft) O 90 0 min 0,0 UV-I 13,0 C 15,0 C 0,0 km/h (0 Bft)
26.07.2014 01:15 14,5 C 24,2 C 15,8 C 14,7 C 14,7 C 0,2 C 89 % 91 % 0 % 1010,7 hPa 0,0 l/m 0,0 km/h (0 Bft) W 270 0 min 0,0 UV-I 12,7 C 14,7 C 0,0 km/h (0 Bft)
26.07.2014 01:20 14,5 C 24,2 C 15,7 C 14,7 C 14,7 C 0,2 C 89 % 91 % 0 % 1010,7 hPa 0,0 l/m 0,0 km/h (0 Bft) NW 315 0 min 0,0 UV-I 12,7 C 14,7 C 0,0 km/h (0 Bft)
26.07.2014 01:25 14,4 C 24,1 C 15,6 C 14,6 C 14,6 C 0,2 C 89 % 91 % 0 % 1010,7 hPa 0,0 l/m 0,0 km/h (0 Bft) O 90 0 min 0,0 UV-I 12,6 C 14,6 C 0,0 km/h (0 Bft)
26.07.2014 01:30 14,3 C 24,1 C 15,7 C 14,4 C 14,4 C 0,1 C 89 % 91 % 0 % 1010,7 hPa 0,0 l/m 0,0 km/h (0 Bft) W 270 0 min 0,0 UV-I 12,5 C 14,4 C 0,0 km/h (0 Bft)
26.07.2014 01:35 14,2 C 24,1 C 15,6 C 14,3 C 14,3 C 0,1 C 89 % 91 % 0 % 1010,6 hPa 0,0 l/m 0,0 km/h (0 Bft) N-NW 337 0 min 0,0 UV-I 12,4 C 14,3 C 0,0 km/h (0 Bft)
26.07.2014 01:40 14,2 C 24,1 C 15,4 C 14,3 C 14,3 C 0,1 C 89 % 91 % 0 % 1010,6 hPa 0,0 l/m 0,0 km/h (0 Bft) NW 315 0 min 0,0 UV-I 12,4 C 14,3 C 0,0 km/h (0 Bft)
26.07.2014 01:45 14,1 C 24,1 C 15,5 C 14,2 C 14,2 C 0,1 C 89 % 91 % 0 % 1010,6 hPa 0,0 l/m 0,0 km/h (0 Bft) S-SW 202 0 min 0,0 UV-I 12,3 C 14,2 C 0,0 km/h (0 Bft)
26.07.2014 01:50 14,1 C 24,1 C 15,4 C 14,2 C 14,2 C 0,1 C 89 % 91 % 0 % 1010,6 hPa 0,0 l/m 0,0 km/h (0 Bft) O-NO 67 0 min 0,0 UV-I 12,3 C 14,2 C 0,0 km/h (0 Bft)
26.07.2014 01:55 14,0 C 24,1 C 15,4 C 14,1 C 14,1 C 0,1 C 89 % 91 % 0 % 1010,6 hPa 0,0 l/m 0,0 km/h (0 Bft) O-NO 67 0 min 0,0 UV-I 12,2 C 14,1 C 0,0 km/h (0 Bft)
26.07.2014 02:00 13,9 C 24,1 C 15,3 C 13,9 C 13,9 C 0,0 C 89 % 91 % 0 % 1010,6 hPa 0,0 l/m 0,0 km/h (0 Bft) O-NO 67 0 min 0,0 UV-I 12,1 C 13,9 C 0,0 km/h (0 Bft)
26.07.2014 02:05 13,9 C 24,1 C 15,2 C 13,9 C 13,9 C 0,0 C 89 % 91 % 0 % 1010,6 hPa 0,0 l/m 0,0 km/h (0 Bft) O-NO 67 0 min 0,0 UV-I 12,1 C 13,9 C 0,0 km/h (0 Bft)
26.07.2014 02:10 13,8 C 24,1 C 15,2 C 13,9 C 13,9 C 0,1 C 89 % 91 % 0 % 1010,6 hPa 0,0 l/m 0,0 km/h (0 Bft) O-NO 67 0 min 0,0 UV-I 12,0 C 13,9 C 0,0 km/h (0 Bft)
26.07.2014 02:15 13,7 C 24,0 C 15,2 C 13,8 C 13,8 C 0,1 C 89 % 91 % 0 % 1010,4 hPa 0,0 l/m 0,0 km/h (0 Bft) SW 225 0 min 0,0 UV-I 11,9 C 13,8 C 0,0 km/h (0 Bft)
26.07.2014 02:20 13,6 C 24,1 C 15,1 C 13,6 C 13,6 C 0,0 C 89 % 91 % 0 % 1010,4 hPa 0,0 l/m 0,0 km/h (0 Bft) SW 225 0 min 0,0 UV-I 11,8 C 13,6 C 0,0 km/h (0 Bft)
26.07.2014 02:25 13,6 C 24,1 C 15,0 C 13,6 C 13,6 C 0,0 C 89 % 91 % 0 % 1010,4 hPa 0,0 l/m 0,0 km/h (0 Bft) SW 225 0 min 0,0 UV-I 11,8 C 13,6 C 0,0 km/h (0 Bft)
26.07.2014 02:30 13,5 C 24,0 C 14,9 C 13,5 C 13,4 C 0,0 C 89 % 91 % 0 % 1010,4 hPa 0,0 l/m 0,0 km/h (0 Bft) SW 225 0 min 0,0 UV-I 11,7 C 13,4 C 0,0 km/h (0 Bft)
26.07.2014 02:35 13,5 C 24,0 C 14,8 C 13,5 C 13,4 C 0,0 C 89 % 91 % 0 % 1010,7 hPa 0,0 l/m 0,0 km/h (0 Bft) W 270 0 min 0,0 UV-I 11,7 C 13,4 C 0,0 km/h (0 Bft)
26.07.2014 02:40 13,4 C 24,0 C 14,9 C 13,4 C 13,4 C 0,0 C 90 % 91 % 0 % 1010,7 hPa 0,0 l/m 0,0 km/h (0 Bft) W 270 0 min 0,0 UV-I 11,8 C 13,4 C 0,0 km/h (0 Bft)
26.07.2014 02:45 13,3 C 24,0 C 14,9 C 13,4 C 13,4 C 0,1 C 90 % 91 % 0 % 1010,7 hPa 0,0 l/m 0,0 km/h (0 Bft) W-SW 247 0 min 0,0 UV-I 11,7 C 13,4 C 0,0 km/h (0 Bft)
26.07.2014 02:50 13,2 C 24,0 C 14,8 C 13,4 C 13,4 C 0,2 C 90 % 91 % 0 % 1010,7 hPa 0,0 l/m 0,0 km/h (0 Bft) O-NO 67 0 min 0,0 UV-I 11,6 C 13,4 C 0,0 km/h (0 Bft)
26.07.2014 02:55 13,2 C 24,0 C 14,7 C 13,4 C 13,4 C 0,2 C 90 % 91 % 0 % 1010,8 hPa 0,0 l/m 0,0 km/h (0 Bft) NO 45 0 min 0,0 UV-I 11,6 C 13,4 C 0,0 km/h (0 Bft)
26.07.2014 03:00 13,2 C 24,0 C 14,7 C 13,5 C 13,5 C 0,3 C 90 % 91 % 0 % 1010,8 hPa 0,0 l/m 0,0 km/h (0 Bft) N-NW 337 0 min 0,0 UV-I 11,6 C 13,5 C 0,0 km/h (0 Bft)
26.07.2014 03:05 13,3 C 24,0 C 14,7 C 13,5 C 13,5 C 0,2 C 90 % 91 % 0 % 1010,8 hPa 0,0 l/m 0,0 km/h (0 Bft) NW 315 0 min 0,0 UV-I 11,7 C 13,5 C 0,0 km/h (0 Bft)
26.07.2014 03:10 13,3 C 24,0 C 14,6 C 13,4 C 13,4 C 0,1 C 90 % 91 % 0 % 1010,8 hPa 0,0 l/m 0,0 km/h (0 Bft) NW 315 0 min 0,0 UV-I 11,7 C 13,4 C 0,0 km/h (0 Bft)
26.07.2014 03:15 13,2 C 24,0 C 14,6 C 13,4 C 13,4 C 0,2 C 90 % 91 % 0 % 1010,8 hPa 0,0 l/m 0,0 km/h (0 Bft) SW 225 0 min 0,0 UV-I 11,6 C 13,4 C 0,0 km/h (0 Bft)
26.07.2014 03:20 13,2 C 23,9 C 14,7 C 13,4 C 13,4 C 0,2 C 90 % 91 % 0 % 1010,8 hPa 0,0 l/m 0,0 km/h (0 Bft) W-SW 247 0 min 0,0 UV-I 11,6 C 13,4 C 0,0 km/h (0 Bft)
26.07.2014 03:25 13,1 C 23,9 C 14,7 C 13,4 C 13,4 C 0,3 C 90 % 91 % 0 % 1010,8 hPa 0,0 l/m 0,0 km/h (0 Bft) SW 225 0 min 0,0 UV-I 11,5 C 13,4 C 0,0 km/h (0 Bft)
26.07.2014 03:30 13,0 C 24,0 C 14,6 C 13,3 C 13,3 C 0,3 C 90 % 91 % 0 % 1010,8 hPa 0,0 l/m 0,0 km/h (0 Bft) W 270 0 min 0,0 UV-I 11,4 C 13,3 C 0,0 km/h (0 Bft)
26.07.2014 03:35 13,1 C 24,0 C 14,5 C 13,3 C 13,3 C 0,2 C 90 % 91 % 0 % 1010,8 hPa 0,0 l/m 0,0 km/h (0 Bft) W 270 0 min 0,0 UV-I 11,5 C 13,3 C 0,0 km/h (0 Bft)
26.07.2014 03:40 13,0 C 24,0 C 14,5 C 13,2 C 13,2 C 0,2 C 90 % 91 % 0 % 1010,8 hPa 0,0 l/m 0,0 km/h (0 Bft) W-SW 247 0 min 0,0 UV-I 11,4 C 13,2 C 0,0 km/h (0 Bft)
26.07.2014 03:45 12,9 C 24,0 C 14,5 C 13,3 C 13,3 C 0,4 C 90 % 91 % 0 % 1010,8 hPa 0,0 l/m 0,0 km/h (0 Bft) O-SO 112 0 min 0,0 UV-I 11,3 C 13,3 C 0,0 km/h (0 Bft)
26.07.2014 03:50 13,0 C 24,0 C 14,4 C 13,3 C 13,3 C 0,3 C 90 % 91 % 0 % 1010,8 hPa 0,0 l/m 0,0 km/h (0 Bft) NO 45 0 min 0,0 UV-I 11,4 C 13,3 C 0,0 km/h (0 Bft)
26.07.2014 03:55 12,9 C 24,0 C 14,5 C 13,3 C 13,3 C 0,4 C 90 % 91 % 0 % 1010,6 hPa 0,0 l/m 0,0 km/h (0 Bft) W-SW 247 0 min 0,0 UV-I 11,3 C 13,3 C 0,0 km/h (0 Bft)
26.07.2014 04:00 12,9 C 24,0 C 14,4 C 13,2 C 13,2 C 0,3 C 90 % 91 % 0 % 1010,6 hPa 0,0 l/m 0,0 km/h (0 Bft) SW 225 0 min 0,0 UV-I 11,3 C 13,2 C 0,0 km/h (0 Bft)
26.07.2014 04:05 12,8 C 24,0 C 14,4 C 13,1 C 13,1 C 0,3 C 90 % 91 % 0 % 1010,6 hPa 0,0 l/m 0,0 km/h (0 Bft) W-SW 247 0 min 0,0 UV-I 11,2 C 13,1 C 0,0 km/h (0 Bft)
26.07.2014 04:10 12,8 C 24,0 C 14,3 C 13,1 C 13,1 C 0,3 C 90 % 91 % 0 % 1010,6 hPa 0,0 l/m 0,0 km/h (0 Bft) SO 135 0 min 0,0 UV-I 11,2 C 13,1 C 0,0 km/h (0 Bft)
26.07.2014 04:15 12,8 C 24,0 C 14,2 C 12,9 C 12,9 C 0,1 C 90 % 91 % 0 % 1010,8 hPa 0,0 l/m 0,0 km/h (0 Bft) O 90 0 min 0,0 UV-I 11,2 C 12,9 C 0,0 km/h (0 Bft)
26.07.2014 04:20 12,7 C 24,0 C 14,3 C 12,9 C 12,9 C 0,2 C 90 % 91 % 0 % 1010,8 hPa 0,0 l/m 0,0 km/h (0 Bft) W-SW 247 0 min 0,0 UV-I 11,1 C 12,9 C 0,0 km/h (0 Bft)
26.07.2014 04:25 12,7 C 24,0 C 14,3 C 12,8 C 12,8 C 0,1 C 90 % 91 % 0 % 1010,8 hPa 0,0 l/m 0,0 km/h (0 Bft) W-SW 247 0 min 0,0 UV-I 11,1 C 12,8 C 0,0 km/h (0 Bft)
26.07.2014 04:30 12,7 C 24,0 C 14,2 C 12,8 C 12,8 C 0,1 C 90 % 91 % 0 % 1010,8 hPa 0,0 l/m 0,0 km/h (0 Bft) W-SW 247 0 min 0,0 UV-I 11,1 C 12,8 C 0,0 km/h (0 Bft)
26.07.2014 04:35 12,6 C 24,0 C 14,1 C 12,8 C 12,8 C 0,2 C 90 % 91 % 0 % 1010,8 hPa 0,0 l/m 0,0 km/h (0 Bft) W-SW 247 0 min 0,0 UV-I 11,0 C 12,8 C 0,0 km/h (0 Bft)
26.07.2014 04:40 12,5 C 23,9 C 14,0 C 12,8 C 12,8 C 0,3 C 90 % 91 % 0 % 1010,8 hPa 0,0 l/m 0,0 km/h (0 Bft) W-SW 247 0 min 0,0 UV-I 10,9 C 12,8 C 0,0 km/h (0 Bft)
26.07.2014 04:45 12,4 C 23,9 C 14,0 C 12,7 C 12,7 C 0,3 C 90 % 91 % 0 % 1010,8 hPa 0,0 l/m 0,0 km/h (0 Bft) S-SW 202 0 min 0,0 UV-I 10,8 C 12,7 C 0,0 km/h (0 Bft)
26.07.2014 04:50 12,4 C 23,9 C 13,9 C 12,6 C 12,6 C 0,2 C 90 % 91 % 0 % 1010,8 hPa 0,0 l/m 0,0 km/h (0 Bft) O-NO 67 0 min 0,0 UV-I 10,8 C 12,6 C 0,0 km/h (0 Bft)
26.07.2014 04:55 12,3 C 23,9 C 13,9 C 12,6 C 12,6 C 0,3 C 90 % 91 % 0 % 1010,9 hPa 0,0 l/m 0,0 km/h (0 Bft) O-SO 112 0 min 0,0 UV-I 10,7 C 12,6 C 0,0 km/h (0 Bft)
26.07.2014 05:00 12,3 C 23,9 C 13,8 C 12,5 C 12,5 C 0,2 C 90 % 91 % 0 % 1010,9 hPa 0,0 l/m 0,0 km/h (0 Bft) O 90 0 min 0,0 UV-I 10,7 C 12,5 C 0,0 km/h (0 Bft)
26.07.2014 05:05 12,2 C 23,8 C 13,8 C 12,4 C 12,4 C 0,2 C 90 % 91 % 0 % 1010,9 hPa 0,0 l/m 0,0 km/h (0 Bft) O-NO 67 0 min 0,0 UV-I 10,6 C 12,4 C 0,0 km/h (0 Bft)
26.07.2014 05:10 12,3 C 23,8 C 13,6 C 12,4 C 12,4 C 0,1 C 90 % 91 % 0 % 1010,9 hPa 0,0 l/m 0,0 km/h (0 Bft) S 180 0 min 0,0 UV-I 10,7 C 12,4 C 0,0 km/h (0 Bft)
26.07.2014 05:15 12,3 C 23,8 C 13,6 C 12,3 C 12,3 C 0,0 C 90 % 91 % 0 % 1011,0 hPa 0,0 l/m 0,0 km/h (0 Bft) NW 315 0 min 0,0 UV-I 10,7 C 12,3 C 0,0 km/h (0 Bft)
26.07.2014 05:20 12,1 C 23,8 C 13,6 C 12,3 C 12,3 C 0,2 C 90 % 91 % 0 % 1011,0 hPa 0,0 l/m 0,0 km/h (0 Bft) NW 315 0 min 0,0 UV-I 10,5 C 12,3 C 0,0 km/h (0 Bft)
26.07.2014 05:25 12,1 C 23,8 C 13,6 C 12,2 C 12,2 C 0,1 C 90 % 91 % 0 % 1011,0 hPa 0,0 l/m 0,0 km/h (0 Bft) N-NO 22 0 min 0,0 UV-I 10,5 C 12,2 C 0,0 km/h (0 Bft)
26.07.2014 05:30 12,1 C 23,8 C 13,6 C 12,3 C 12,3 C 0,2 C 90 % 91 % 0 % 1011,0 hPa 0,0 l/m 0,0 km/h (0 Bft) O-NO 67 0 min 0,0 UV-I 10,5 C 12,3 C 0,0 km/h (0 Bft)
26.07.2014 05:35 12,1 C 23,8 C 13,7 C 12,3 C 12,3 C 0,2 C 90 % 91 % 0 % 1010,9 hPa 0,0 l/m 0,0 km/h (0 Bft) O-NO 67 0 min 0,0 UV-I 10,5 C 12,3 C 0,0 km/h (0 Bft)
26.07.2014 05:40 12,0 C 23,7 C 13,6 C 12,2 C 12,2 C 0,2 C 90 % 91 % 5 % 1010,9 hPa 0,0 l/m 0,0 km/h (0 Bft) SW 225 5 min 0,0 UV-I 10,4 C 12,2 C 0,0 km/h (0 Bft)
26.07.2014 05:45 12,0 C 23,7 C 13,6 C 12,2 C 12,2 C 0,2 C 91 % 91 % 5 % 1010,9 hPa 0,0 l/m 0,0 km/h (0 Bft) W-SW 247 0 min 0,0 UV-I 10,6 C 12,2 C 0,0 km/h (0 Bft)
26.07.2014 05:50 11,9 C 23,7 C 13,6 C 12,1 C 12,1 C 0,2 C 91 % 91 % 5 % 1010,9 hPa 0,0 l/m 0,0 km/h (0 Bft) W-SW 247 0 min 0,0 UV-I 10,5 C 12,1 C 0,0 km/h (0 Bft)
26.07.2014 05:55 11,9 C 23,7 C 13,5 C 12,2 C 12,2 C 0,3 C 90 % 91 % 8 % 1011,1 hPa 0,0 l/m 0,0 km/h (0 Bft) O-NO 67 0 min 0,0 UV-I 10,3 C 12,2 C 0,0 km/h (0 Bft)
26.07.2014 06:00 11,9 C 23,7 C 13,5 C 12,3 C 12,3 C 0,4 C 91 % 91 % 11 % 1011,1 hPa 0,0 l/m 0,0 km/h (0 Bft) O 90 0 min 0,0 UV-I 10,5 C 12,3 C 0,0 km/h (0 Bft)
26.07.2014 06:05 11,9 C 23,7 C 13,4 C 12,2 C 12,2 C 0,3 C 91 % 91 % 8 % 1011,1 hPa 0,0 l/m 0,0 km/h (0 Bft) W-SW 247 0 min 0,0 UV-I 10,5 C 12,2 C 0,0 km/h (0 Bft)
26.07.2014 06:10 11,8 C 23,7 C 13,5 C 12,2 C 12,2 C 0,4 C 91 % 91 % 11 % 1011,1 hPa 0,0 l/m 0,0 km/h (0 Bft) W-SW 247 0 min 0,0 UV-I 10,4 C 12,2 C 0,0 km/h (0 Bft)
26.07.2014 06:15 11,8 C 23,7 C 13,4 C 12,2 C 12,2 C 0,4 C 91 % 91 % 11 % 1011,2 hPa 0,0 l/m 0,0 km/h (0 Bft) O-NO 67 0 min 0,0 UV-I 10,4 C 12,2 C 0,0 km/h (0 Bft)
26.07.2014 06:20 11,8 C 23,6 C 13,5 C 12,4 C 12,4 C 0,6 C 91 % 91 % 16 % 1011,2 hPa 0,0 l/m 0,0 km/h (0 Bft) W-SW 247 0 min 0,0 UV-I 10,4 C 12,4 C 0,0 km/h (0 Bft)
26.07.2014 06:25 11,9 C 23,6 C 13,6 C 12,5 C 12,5 C 0,6 C 91 % 91 % 16 % 1011,2 hPa 0,0 l/m 0,0 km/h (0 Bft) W-SW 247 0 min 0,0 UV-I 10,5 C 12,5 C 0,0 km/h (0 Bft)
26.07.2014 06:30 11,9 C 23,6 C 13,6 C 12,5 C 12,5 C 0,6 C 91 % 91 % 16 % 1011,2 hPa 0,0 l/m 0,0 km/h (0 Bft) W-SW 247 0 min 0,0 UV-I 10,5 C 12,5 C 0,0 km/h (0 Bft)
26.07.2014 06:35 11,9 C 23,6 C 13,6 C 12,6 C 12,6 C 0,7 C 91 % 91 % 18 % 1011,4 hPa 0,0 l/m 0,0 km/h (0 Bft) W-SW 247 0 min 0,0 UV-I 10,5 C 12,6 C 0,0 km/h (0 Bft)
26.07.2014 06:40 11,9 C 23,6 C 13,7 C 12,6 C 12,6 C 0,7 C 91 % 91 % 18 % 1011,4 hPa 0,0 l/m 0,0 km/h (0 Bft) W-SW 247 0 min 0,0 UV-I 10,5 C 12,6 C 0,0 km/h (0 Bft)
26.07.2014 06:45 11,9 C 23,6 C 13,8 C 12,8 C 12,8 C 0,9 C 91 % 91 % 24 % 1011,4 hPa 0,0 l/m 0,0 km/h (0 Bft) SW 225 0 min 0,0 UV-I 10,5 C 12,8 C 0,0 km/h (0 Bft)
26.07.2014 06:50 12,0 C 23,6 C 13,9 C 12,8 C 12,8 C 0,8 C 91 % 91 % 21 % 1011,4 hPa 0,0 l/m 0,0 km/h (0 Bft) W-SW 247 0 min 0,0 UV-I 10,6 C 12,8 C 0,0 km/h (0 Bft)
26.07.2014 06:55 12,1 C 23,6 C 13,9 C 12,9 C 12,9 C 0,8 C 91 % 91 % 21 % 1011,6 hPa 0,0 l/m 0,0 km/h (0 Bft) W-SW 247 0 min 0,0 UV-I 10,7 C 12,9 C 0,0 km/h (0 Bft)
26.07.2014 07:00 12,1 C 23,6 C 14,2 C 13,2 C 13,2 C 1,1 C 91 % 91 % 29 % 1011,6 hPa 0,0 l/m 0,0 km/h (0 Bft) NW 315 0 min 0,0 UV-I 10,7 C 13,2 C 0,0 km/h (0 Bft)
26.07.2014 07:05 12,2 C 23,6 C 14,2 C 13,3 C 13,3 C 1,1 C 92 % 91 % 29 % 1011,6 hPa 0,0 l/m 0,0 km/h (0 Bft) N-NO 22 0 min 0,0 UV-I 10,9 C 13,3 C 0,0 km/h (0 Bft)
26.07.2014 07:10 12,4 C 23,5 C 14,7 C 14,0 C 14,0 C 1,6 C 92 % 91 % 42 % 1011,6 hPa 0,0 l/m 0,0 km/h (0 Bft) SW 225 0 min 0,0 UV-I 11,1 C 14,0 C 0,0 km/h (0 Bft)
26.07.2014 07:15 12,5 C 23,5 C 14,9 C 15,6 C 15,6 C 3,1 C 92 % 91 % 82 % 1011,6 hPa 0,0 l/m 0,0 km/h (0 Bft) W 270 5 min 0,0 UV-I 11,2 C 15,6 C 0,0 km/h (0 Bft)
26.07.2014 07:20 12,8 C 23,5 C 15,0 C 17,1 C 17,1 C 4,3 C 92 % 91 % 100 % 1011,6 hPa 0,0 l/m 0,0 km/h (0 Bft) W-SW 247 5 min 0,0 UV-I 11,5 C 17,1 C 0,0 km/h (0 Bft)
26.07.2014 07:25 13,1 C 23,5 C 15,1 C 17,8 C 17,8 C 4,7 C 92 % 91 % 100 % 1011,6 hPa 0,0 l/m 0,0 km/h (0 Bft) W-SW 247 5 min 0,0 UV-I 11,8 C 17,8 C 0,0 km/h (0 Bft)
26.07.2014 07:30 13,3 C 23,5 C 15,6 C 18,8 C 18,8 C 5,5 C 92 % 91 % 100 % 1011,6 hPa 0,0 l/m 0,0 km/h (0 Bft) W-SW 247 5 min 0,0 UV-I 12,0 C 18,8 C 0,0 km/h (0 Bft)
26.07.2014 07:35 13,5 C 23,5 C 15,7 C 19,6 C 19,6 C 6,1 C 92 % 91 % 100 % 1011,3 hPa 0,0 l/m 0,0 km/h (0 Bft) W 270 5 min 0,7 UV-I 12,2 C 19,6 C 0,0 km/h (0 Bft)
26.07.2014 07:40 14,1 C 23,4 C 15,6 C 21,0 C 21,0 C 6,9 C 93 % 91 % 100 % 1011,3 hPa 0,0 l/m 0,0 km/h (0 Bft) NW 315 5 min 0,1 UV-I 13,0 C 21,0 C 0,0 km/h (0 Bft)
26.07.2014 07:45 14,4 C 23,4 C 15,6 C 21,2 C 21,2 C 6,8 C 93 % 91 % 100 % 1011,3 hPa 0,0 l/m 0,0 km/h (0 Bft) S-SW 202 5 min 0,0 UV-I 13,3 C 21,2 C 0,0 km/h (0 Bft)
26.07.2014 07:50 14,8 C 23,4 C 15,7 C 20,0 C 20,0 C 5,2 C 93 % 91 % 100 % 1011,3 hPa 0,0 l/m 0,0 km/h (0 Bft) NW 315 5 min 0,0 UV-I 13,7 C 20,0 C 0,0 km/h (0 Bft)
26.07.2014 07:55 14,9 C 23,4 C 15,7 C 19,7 C 19,7 C 4,8 C 93 % 90 % 100 % 1011,4 hPa 0,0 l/m 0,0 km/h (0 Bft) NW 315 5 min 0,0 UV-I 13,8 C 19,7 C 0,0 km/h (0 Bft)
26.07.2014 08:00 15,1 C 23,4 C 15,9 C 19,4 C 19,4 C 4,3 C 93 % 90 % 100 % 1011,4 hPa 0,0 l/m 0,0 km/h (0 Bft) NW 315 5 min 0,0 UV-I 14,0 C 19,4 C 0,0 km/h (0 Bft)
26.07.2014 08:05 15,2 C 23,4 C 15,9 C 19,0 C 19,0 C 3,8 C 93 % 90 % 100 % 1011,4 hPa 0,0 l/m 0,0 km/h (0 Bft) NW 315 5 min 0,0 UV-I 14,1 C 19,0 C 0,0 km/h (0 Bft)
26.07.2014 08:10 15,5 C 23,4 C 15,9 C 18,9 C 18,9 C 3,4 C 93 % 90 % 89 % 1011,4 hPa 0,0 l/m 0,0 km/h (0 Bft) NO 45 5 min 0,0 UV-I 14,4 C 18,9 C 0,0 km/h (0 Bft)
26.07.2014 08:15 15,6 C 23,4 C 15,9 C 19,0 C 19,0 C 3,4 C 93 % 90 % 89 % 1011,6 hPa 0,0 l/m 0,0 km/h (0 Bft) NW 315 5 min 0,0 UV-I 14,5 C 19,0 C 0,0 km/h (0 Bft)
26.07.2014 08:20 15,7 C 23,3 C 16,1 C 20,1 C 20,1 C 4,4 C 93 % 90 % 100 % 1011,6 hPa 0,0 l/m 0,0 km/h (0 Bft) SW 225 5 min 0,0 UV-I 14,6 C 20,1 C 0,0 km/h (0 Bft)
26.07.2014 08:25 15,6 C 23,3 C 16,3 C 21,5 C 21,5 C 5,9 C 93 % 90 % 100 % 1011,6 hPa 0,0 l/m 0,0 km/h (0 Bft) N-NW 337 5 min 0,0 UV-I 14,5 C 21,5 C 0,0 km/h (0 Bft)
26.07.2014 08:30 16,0 C 23,3 C 16,5 C 22,9 C 22,9 C 6,9 C 93 % 90 % 100 % 1011,6 hPa 0,0 l/m 0,0 km/h (0 Bft) SW 225 5 min 0,0 UV-I 14,9 C 22,9 C 0,0 km/h (0 Bft)
26.07.2014 08:35 16,1 C 23,3 C 16,7 C 22,9 C 22,9 C 6,8 C 93 % 90 % 100 % 1011,8 hPa 0,0 l/m 0,0 km/h (0 Bft) W 270 5 min 0,0 UV-I 15,0 C 22,9 C 0,0 km/h (0 Bft)
26.07.2014 08:40 16,5 C 23,3 C 16,9 C 22,9 C 22,9 C 6,4 C 93 % 90 % 100 % 1011,8 hPa 0,0 l/m 0,2 km/h (0 Bft) NW 315 5 min 0,0 UV-I 15,4 C 22,9 C 2,9 km/h (1 Bft)
26.07.2014 08:45 16,7 C 23,2 C 17,0 C 22,9 C 22,9 C 6,2 C 93 % 90 % 100 % 1011,8 hPa 0,0 l/m 0,2 km/h (0 Bft) S 180 5 min 0,0 UV-I 15,6 C 22,9 C 0,0 km/h (0 Bft)
26.07.2014 08:50 16,9 C 23,2 C 17,3 C 23,6 C 23,6 C 6,7 C 93 % 90 % 100 % 1011,8 hPa 0,0 l/m 0,3 km/h (0 Bft) N-NW 337 5 min 0,0 UV-I 15,8 C 23,6 C 0,0 km/h (0 Bft)
26.07.2014 08:55 17,3 C 23,2 C 17,5 C 24,4 C 24,4 C 7,1 C 92 % 90 % 100 % 1011,9 hPa 0,0 l/m 0,2 km/h (0 Bft) N-NO 22 5 min 0,0 UV-I 16,0 C 24,4 C 0,0 km/h (0 Bft)
26.07.2014 09:00 17,5 C 23,2 C 17,9 C 25,0 C 25,0 C 7,5 C 92 % 90 % 100 % 1011,9 hPa 0,0 l/m 0,3 km/h (0 Bft) N-NW 337 5 min 0,0 UV-I 16,2 C 25,0 C 0,0 km/h (0 Bft)
26.07.2014 09:05 17,7 C 23,2 C 18,0 C 25,2 C 25,2 C 7,5 C 92 % 90 % 100 % 1011,9 hPa 0,0 l/m 0,3 km/h (0 Bft) W-SW 247 5 min 0,0 UV-I 16,4 C 25,2 C 0,0 km/h (0 Bft)
26.07.2014 09:10 18,0 C 23,1 C 18,2 C 25,6 C 25,6 C 7,6 C 91 % 90 % 100 % 1011,9 hPa 0,0 l/m 0,2 km/h (0 Bft) SW 225 5 min 0,0 UV-I 16,5 C 25,6 C 0,0 km/h (0 Bft)
26.07.2014 09:15 18,3 C 23,1 C 18,3 C 25,7 C 25,7 C 7,4 C 91 % 90 % 100 % 1011,8 hPa 0,0 l/m 0,2 km/h (0 Bft) S-SW 202 5 min 0,0 UV-I 16,8 C 25,7 C 0,0 km/h (0 Bft)
26.07.2014 09:20 18,5 C 23,1 C 18,4 C 25,0 C 25,0 C 6,5 C 90 % 89 % 100 % 1011,8 hPa 0,0 l/m 0,5 km/h (0 Bft) SW 225 5 min 0,0 UV-I 16,8 C 25,0 C 0,0 km/h (0 Bft)
26.07.2014 09:25 18,5 C 23,1 C 18,4 C 24,7 C 24,7 C 6,2 C 90 % 89 % 100 % 1011,8 hPa 0,0 l/m 0,5 km/h (0 Bft) O-SO 112 5 min 0,0 UV-I 16,8 C 24,7 C 0,0 km/h (0 Bft)
26.07.2014 09:30 18,7 C 23,1 C 18,6 C 25,4 C 25,4 C 6,7 C 89 % 89 % 100 % 1011,8 hPa 0,0 l/m 0,0 km/h (0 Bft) W 270 5 min 0,0 UV-I 16,8 C 25,4 C 0,0 km/h (0 Bft)
26.07.2014 09:35 18,8 C 23,1 C 18,7 C 26,8 C 26,8 C 8,0 C 88 % 89 % 100 % 1011,5 hPa 0,0 l/m 0,0 km/h (0 Bft) W-NW 292 5 min 0,0 UV-I 16,8 C 26,8 C 0,0 km/h (0 Bft)
26.07.2014 09:40 19,1 C 23,0 C 18,8 C 27,3 C 27,3 C 8,2 C 88 % 89 % 100 % 1011,5 hPa 0,0 l/m 0,3 km/h (0 Bft) S 180 5 min 0,0 UV-I 17,1 C 27,3 C 1,6 km/h (1 Bft)
26.07.2014 09:45 19,1 C 23,0 C 18,9 C 26,3 C 26,3 C 7,2 C 87 % 88 % 100 % 1011,5 hPa 0,0 l/m 0,3 km/h (0 Bft) S 180 5 min 0,0 UV-I 16,9 C 26,3 C 0,0 km/h (0 Bft)
26.07.2014 09:50 19,3 C 23,0 C 19,0 C 24,9 C 24,9 C 5,6 C 86 % 88 % 100 % 1011,5 hPa 0,0 l/m 0,5 km/h (0 Bft) NW 315 5 min 0,0 UV-I 16,9 C 24,9 C 0,0 km/h (0 Bft)
26.07.2014 09:55 19,6 C 23,0 C 19,2 C 24,8 C 24,8 C 5,2 C 85 % 88 % 100 % 1011,4 hPa 0,0 l/m 0,3 km/h (0 Bft) W 270 5 min 0,0 UV-I 17,0 C 24,8 C 0,0 km/h (0 Bft)
26.07.2014 10:00 20,1 C 23,0 C 19,5 C 24,6 C 24,6 C 4,5 C 85 % 88 % 100 % 1011,4 hPa 0,0 l/m 0,6 km/h (0 Bft) W 270 5 min 0,0 UV-I 17,5 C 24,6 C 3,9 km/h (1 Bft)
26.07.2014 10:05 20,7 C 23,0 C 19,9 C 24,4 C 24,4 C 3,7 C 83 % 88 % 97 % 1011,4 hPa 0,0 l/m 1,3 km/h (1 Bft) N-NO 22 5 min 0,0 UV-I 17,7 C 24,4 C 4,0 km/h (1 Bft)
26.07.2014 10:10 21,4 C 23,0 C 20,3 C 24,4 C 24,4 C 3,0 C 80 % 87 % 79 % 1011,4 hPa 0,0 l/m 2,4 km/h (1 Bft) O 90 0 min 0,0 UV-I 17,8 C 24,4 C 6,1 km/h (2 Bft)
26.07.2014 10:15 21,7 C 23,0 C 20,7 C 24,3 C 24,3 C 2,6 C 79 % 86 % 68 % 1011,2 hPa 0,0 l/m 1,9 km/h (1 Bft) O-SO 112 0 min 0,0 UV-I 17,9 C 24,3 C 4,8 km/h (1 Bft)
26.07.2014 10:20 22,3 C 23,0 C 21,1 C 24,7 C 24,7 C 2,4 C 77 % 85 % 63 % 1011,2 hPa 0,0 l/m 2,3 km/h (1 Bft) O-NO 67 0 min 0,0 UV-I 18,1 C 24,7 C 8,0 km/h (2 Bft)
26.07.2014 10:25 22,5 C 23,0 C 21,3 C 25,2 C 25,2 C 2,7 C 76 % 83 % 71 % 1011,2 hPa 0,0 l/m 3,1 km/h (1 Bft) O-NO 67 0 min 0,0 UV-I 18,0 C 25,2 C 3,7 km/h (1 Bft)
26.07.2014 10:30 22,8 C 22,9 C 21,5 C 27,1 C 27,1 C 4,3 C 74 % 82 % 100 % 1011,2 hPa 0,0 l/m 3,1 km/h (1 Bft) N 360 5 min 0,0 UV-I 17,9 C 27,1 C 2,4 km/h (1 Bft)
26.07.2014 10:35 23,1 C 22,9 C 21,7 C 28,6 C 28,6 C 5,5 C 75 % 82 % 100 % 1010,9 hPa 0,0 l/m 1,8 km/h (1 Bft) O-SO 112 5 min 0,0 UV-I 18,4 C 28,6 C 2,1 km/h (1 Bft)
26.07.2014 10:40 23,3 C 22,9 C 21,7 C 29,9 C 29,9 C 6,6 C 73 % 80 % 100 % 1010,9 hPa 0,0 l/m 1,1 km/h (1 Bft) W-SW 247 5 min 0,0 UV-I 18,2 C 29,9 C 3,5 km/h (1 Bft)
26.07.2014 10:45 23,5 C 22,9 C 21,9 C 30,3 C 30,3 C 6,8 C 71 % 79 % 100 % 1010,9 hPa 0,0 l/m 1,6 km/h (1 Bft) O-SO 112 5 min 0,0 UV-I 17,9 C 30,3 C 8,9 km/h (2 Bft)
26.07.2014 10:50 23,7 C 22,9 C 22,1 C 30,3 C 30,3 C 6,6 C 71 % 78 % 100 % 1010,9 hPa 0,0 l/m 1,9 km/h (1 Bft) O-NO 67 5 min 0,0 UV-I 18,1 C 30,3 C 2,1 km/h (1 Bft)
26.07.2014 10:55 23,9 C 22,9 C 22,4 C 30,1 C 30,1 C 6,2 C 68 % 76 % 100 % 1010,9 hPa 0,0 l/m 3,1 km/h (1 Bft) O-NO 67 5 min 0,0 UV-I 17,6 C 30,1 C 4,0 km/h (1 Bft)
26.07.2014 11:00 24,2 C 23,0 C 22,7 C 30,1 C 30,1 C 5,9 C 68 % 76 % 100 % 1010,9 hPa 0,0 l/m 2,9 km/h (1 Bft) NW 315 5 min 0,0 UV-I 17,9 C 30,1 C 2,3 km/h (1 Bft)
26.07.2014 11:05 24,4 C 23,0 C 22,8 C 30,5 C 30,5 C 6,1 C 68 % 76 % 100 % 1010,9 hPa 0,0 l/m 2,1 km/h (1 Bft) O 90 5 min 0,0 UV-I 18,1 C 30,5 C 6,8 km/h (2 Bft)
26.07.2014 11:10 24,7 C 23,0 C 23,2 C 30,3 C 30,3 C 5,6 C 68 % 75 % 100 % 1010,9 hPa 0,0 l/m 2,7 km/h (1 Bft) O-NO 67 5 min 0,0 UV-I 18,4 C 30,3 C 3,2 km/h (1 Bft)
26.07.2014 11:15 24,9 C 23,0 C 23,3 C 30,3 C 30,3 C 5,4 C 64 % 72 % 100 % 1011,0 hPa 0,0 l/m 3,2 km/h (1 Bft) O 90 5 min 0,0 UV-I 17,6 C 30,3 C 6,0 km/h (2 Bft)
26.07.2014 11:20 25,1 C 22,9 C 23,5 C 29,8 C 29,8 C 4,7 C 63 % 71 % 100 % 1011,0 hPa 0,0 l/m 3,5 km/h (1 Bft) O-SO 112 5 min 0,0 UV-I 17,5 C 29,8 C 6,1 km/h (2 Bft)
26.07.2014 11:25 25,1 C 22,9 C 23,6 C 28,9 C 28,9 C 3,8 C 62 % 71 % 100 % 1011,0 hPa 0,0 l/m 4,5 km/h (1 Bft) O-SO 112 5 min 0,0 UV-I 17,3 C 28,9 C 4,7 km/h (1 Bft)
26.07.2014 11:30 25,3 C 22,9 C 23,9 C 28,0 C 28,0 C 2,7 C 63 % 70 % 71 % 1011,0 hPa 0,0 l/m 4,2 km/h (1 Bft) N-NW 337 0 min 0,0 UV-I 17,7 C 28,0 C 3,2 km/h (1 Bft)
26.07.2014 11:35 25,5 C 23,0 C 24,1 C 27,8 C 27,8 C 2,3 C 61 % 69 % 61 % 1011,0 hPa 0,0 l/m 3,9 km/h (1 Bft) O-NO 67 0 min 0,0 UV-I 17,4 C 27,8 C 5,5 km/h (1 Bft)
26.07.2014 11:40 25,6 C 23,0 C 24,1 C 27,8 C 27,8 C 2,2 C 61 % 68 % 58 % 1011,0 hPa 0,0 l/m 4,3 km/h (1 Bft) O 90 0 min 0,0 UV-I 17,5 C 27,8 C 9,2 km/h (2 Bft)
26.07.2014 11:45 25,7 C 23,0 C 24,3 C 28,5 C 28,5 C 2,8 C 60 % 68 % 74 % 1011,0 hPa 0,0 l/m 5,0 km/h (1 Bft) O 90 0 min 0,0 UV-I 17,3 C 28,5 C 7,2 km/h (2 Bft)
26.07.2014 11:50 25,9 C 23,0 C 24,4 C 28,9 C 28,9 C 3,0 C 59 % 66 % 79 % 1011,0 hPa 0,0 l/m 5,5 km/h (1 Bft) O-NO 67 0 min 0,0 UV-I 17,3 C 28,9 C 4,0 km/h (1 Bft)
26.07.2014 11:55 26,1 C 23,0 C 24,6 C 29,5 C 29,5 C 3,4 C 58 % 65 % 89 % 1010,9 hPa 0,0 l/m 4,8 km/h (1 Bft) O-NO 67 5 min 0,0 UV-I 17,2 C 29,5 C 2,6 km/h (1 Bft)
26.07.2014 12:00 26,1 C 23,0 C 24,7 C 30,0 C 30,0 C 3,9 C 58 % 63 % 100 % 1010,9 hPa 0,0 l/m 5,0 km/h (1 Bft) NO 45 5 min 0,0 UV-I 17,2 C 30,0 C 10,3 km/h (2 Bft)
26.07.2014 12:05 26,1 C 23,0 C 24,9 C 30,4 C 30,4 C 4,3 C 58 % 64 % 100 % 1010,9 hPa 0,0 l/m 4,7 km/h (1 Bft) NW 315 5 min 0,0 UV-I 17,2 C 30,4 C 3,7 km/h (1 Bft)
26.07.2014 12:10 26,4 C 23,1 C 24,9 C 31,6 C 31,6 C 5,2 C 56 % 64 % 100 % 1010,9 hPa 0,0 l/m 2,7 km/h (1 Bft) NW 315 5 min 0,0 UV-I 16,9 C 31,6 C 3,1 km/h (1 Bft)
26.07.2014 12:15 26,6 C 23,1 C 25,3 C 32,1 C 32,1 C 5,5 C 57 % 65 % 100 % 1011,1 hPa 0,0 l/m 1,9 km/h (1 Bft) O 90 5 min 0,0 UV-I 17,4 C 32,1 C 2,1 km/h (1 Bft)
26.07.2014 12:20 26,7 C 23,0 C 25,4 C 32,4 C 32,4 C 5,7 C 56 % 63 % 100 % 1011,1 hPa 0,0 l/m 2,3 km/h (1 Bft) O 90 5 min 0,0 UV-I 17,2 C 32,4 C 1,6 km/h (1 Bft)
26.07.2014 12:25 27,0 C 23,0 C 25,4 C 32,6 C 32,6 C 5,6 C 56 % 63 % 100 % 1011,1 hPa 0,0 l/m 2,4 km/h (1 Bft) O-NO 67 5 min 0,0 UV-I 17,5 C 32,6 C 2,6 km/h (1 Bft)
26.07.2014 12:30 27,3 C 23,0 C 25,6 C 32,5 C 32,5 C 5,2 C 54 % 62 % 100 % 1011,1 hPa 0,0 l/m 2,9 km/h (1 Bft) O 90 5 min 0,0 UV-I 17,2 C 32,5 C 3,1 km/h (1 Bft)
26.07.2014 12:35 27,2 C 23,1 C 25,7 C 32,1 C 32,1 C 4,9 C 55 % 62 % 100 % 1011,0 hPa 0,0 l/m 3,4 km/h (1 Bft) N-NO 22 5 min 0,0 UV-I 17,4 C 32,1 C 1,6 km/h (1 Bft)
26.07.2014 12:40 27,4 C 23,1 C 25,6 C 32,1 C 32,1 C 4,7 C 55 % 61 % 100 % 1011,0 hPa 0,0 l/m 3,4 km/h (1 Bft) N-NO 22 5 min 0,0 UV-I 17,5 C 32,1 C 2,9 km/h (1 Bft)
26.07.2014 12:45 27,6 C 23,1 C 25,7 C 32,1 C 32,1 C 4,5 C 53 % 60 % 100 % 1011,0 hPa 0,0 l/m 2,9 km/h (1 Bft) O-NO 67 5 min 0,0 UV-I 17,1 C 32,1 C 8,2 km/h (2 Bft)
26.07.2014 12:50 27,5 C 23,1 C 25,8 C 31,3 C 31,3 C 3,8 C 54 % 61 % 100 % 1011,0 hPa 0,0 l/m 3,7 km/h (1 Bft) O-SO 112 5 min 0,0 UV-I 17,3 C 31,3 C 2,9 km/h (1 Bft)
26.07.2014 12:55 27,6 C 23,1 C 25,9 C 31,5 C 31,5 C 3,9 C 54 % 62 % 100 % 1011,1 hPa 0,0 l/m 3,9 km/h (1 Bft) O-NO 67 5 min 0,0 UV-I 17,4 C 31,5 C 4,5 km/h (1 Bft)
26.07.2014 13:00 27,8 C 23,2 C 26,0 C 31,8 C 31,8 C 4,0 C 54 % 62 % 100 % 1011,1 hPa 0,0 l/m 3,2 km/h (1 Bft) O-NO 67 5 min 0,0 UV-I 17,6 C 31,8 C 5,8 km/h (2 Bft)
26.07.2014 13:05 27,9 C 23,2 C 26,2 C 31,8 C 31,8 C 3,9 C 53 % 60 % 100 % 1011,1 hPa 0,0 l/m 4,2 km/h (1 Bft) O-SO 112 5 min 0,0 UV-I 17,4 C 31,8 C 6,3 km/h (2 Bft)
26.07.2014 13:10 27,8 C 23,2 C 26,3 C 31,6 C 31,6 C 3,8 C 52 % 60 % 100 % 1011,1 hPa 0,0 l/m 5,3 km/h (1 Bft) O-SO 112 5 min 0,0 UV-I 17,0 C 31,6 C 10,5 km/h (2 Bft)
26.07.2014 13:15 27,7 C 23,2 C 26,3 C 31,2 C 31,2 C 3,5 C 55 % 61 % 92 % 1010,8 hPa 0,0 l/m 4,5 km/h (1 Bft) O-SO 112 5 min 0,0 UV-I 17,8 C 31,2 C 2,4 km/h (1 Bft)
26.07.2014 13:20 27,8 C 23,2 C 26,4 C 30,9 C 30,9 C 3,1 C 54 % 60 % 82 % 1010,8 hPa 0,0 l/m 3,7 km/h (1 Bft) O-NO 67 0 min 0,0 UV-I 17,6 C 30,9 C 9,7 km/h (2 Bft)
26.07.2014 13:25 28,0 C 23,2 C 26,7 C 31,3 C 31,3 C 3,3 C 53 % 61 % 87 % 1010,8 hPa 0,0 l/m 4,3 km/h (1 Bft) NO 45 5 min 0,0 UV-I 17,5 C 31,3 C 5,1 km/h (1 Bft)
26.07.2014 13:30 28,1 C 23,3 C 26,9 C 32,3 C 32,3 C 4,2 C 54 % 60 % 100 % 1010,8 hPa 0,0 l/m 3,7 km/h (1 Bft) NW 315 5 min 0,0 UV-I 17,9 C 32,3 C 0,0 km/h (0 Bft)
26.07.2014 13:35 28,3 C 23,3 C 26,9 C 32,6 C 32,6 C 4,3 C 51 % 59 % 100 % 1010,9 hPa 0,0 l/m 3,7 km/h (1 Bft) SO 135 5 min 0,0 UV-I 17,2 C 32,6 C 2,9 km/h (1 Bft)
26.07.2014 13:40 28,3 C 23,3 C 27,1 C 32,3 C 32,3 C 4,0 C 52 % 57 % 100 % 1010,9 hPa 0,0 l/m 5,0 km/h (1 Bft) O-NO 67 5 min 0,0 UV-I 17,5 C 32,3 C 11,6 km/h (2 Bft)
26.07.2014 13:45 28,1 C 23,3 C 27,3 C 32,1 C 32,1 C 4,0 C 52 % 57 % 100 % 1010,9 hPa 0,0 l/m 5,5 km/h (1 Bft) O 90 5 min 0,0 UV-I 17,3 C 32,1 C 11,4 km/h (2 Bft)
26.07.2014 13:50 27,9 C 23,4 C 26,9 C 31,0 C 31,0 C 3,1 C 52 % 58 % 82 % 1010,9 hPa 0,0 l/m 6,0 km/h (2 Bft) O-NO 67 0 min 0,0 UV-I 17,1 C 31,0 C 10,1 km/h (2 Bft)
26.07.2014 13:55 27,6 C 23,4 C 26,6 C 30,3 C 30,3 C 2,7 C 53 % 58 % 71 % 1010,9 hPa 0,0 l/m 6,0 km/h (2 Bft) O-SO 112 0 min 0,0 UV-I 17,1 C 30,3 C 5,5 km/h (1 Bft)
26.07.2014 14:00 27,5 C 23,4 C 26,4 C 29,5 C 29,5 C 2,0 C 52 % 58 % 53 % 1010,9 hPa 0,0 l/m 4,8 km/h (1 Bft) S-SO 157 0 min 0,0 UV-I 16,7 C 29,5 C 6,4 km/h (2 Bft)
26.07.2014 14:05 27,5 C 23,4 C 26,4 C 29,3 C 29,3 C 1,8 C 54 % 59 % 47 % 1010,9 hPa 0,0 l/m 4,2 km/h (1 Bft) N-NW 337 0 min 0,0 UV-I 17,3 C 29,3 C 2,7 km/h (1 Bft)
26.07.2014 14:10 27,8 C 23,4 C 27,0 C 30,5 C 30,5 C 2,7 C 54 % 60 % 71 % 1010,9 hPa 0,0 l/m 3,4 km/h (1 Bft) NO 45 0 min 0,0 UV-I 17,6 C 30,5 C 3,7 km/h (1 Bft)
26.07.2014 14:15 28,1 C 23,4 C 27,3 C 31,7 C 31,7 C 3,6 C 52 % 58 % 95 % 1010,7 hPa 0,0 l/m 3,1 km/h (1 Bft) O-NO 67 5 min 0,0 UV-I 17,3 C 31,7 C 10,0 km/h (2 Bft)
26.07.2014 14:20 28,3 C 23,5 C 27,5 C 32,3 C 32,3 C 4,0 C 51 % 56 % 100 % 1010,7 hPa 0,0 l/m 4,2 km/h (1 Bft) O-NO 67 5 min 0,0 UV-I 17,2 C 32,3 C 6,6 km/h (2 Bft)
26.07.2014 14:25 28,4 C 23,5 C 27,6 C 32,5 C 32,5 C 4,1 C 50 % 57 % 100 % 1010,7 hPa 0,0 l/m 5,1 km/h (1 Bft) O-NO 67 5 min 0,0 UV-I 17,0 C 32,5 C 8,5 km/h (2 Bft)
26.07.2014 14:30 28,6 C 23,4 C 27,7 C 32,5 C 32,5 C 3,9 C 49 % 56 % 100 % 1010,7 hPa 0,0 l/m 5,8 km/h (2 Bft) O-NO 67 5 min 0,1 UV-I 16,8 C 32,5 C 6,9 km/h (2 Bft)
26.07.2014 14:35 28,4 C 23,4 C 27,6 C 32,4 C 32,4 C 4,0 C 50 % 56 % 100 % 1010,4 hPa 0,0 l/m 4,7 km/h (1 Bft) NO 45 5 min 0,0 UV-I 17,0 C 32,4 C 3,5 km/h (1 Bft)
26.07.2014 14:40 28,4 C 23,5 C 27,5 C 32,1 C 32,1 C 3,7 C 49 % 53 % 97 % 1010,4 hPa 0,0 l/m 5,0 km/h (1 Bft) NO 45 5 min 0,0 UV-I 16,6 C 32,1 C 12,7 km/h (3 Bft)
26.07.2014 14:45 28,2 C 23,6 C 27,2 C 31,1 C 31,1 C 2,9 C 48 % 54 % 76 % 1010,4 hPa 0,0 l/m 5,8 km/h (2 Bft) O-NO 67 0 min 0,0 UV-I 16,1 C 31,1 C 6,8 km/h (2 Bft)
26.07.2014 14:50 28,0 C 23,6 C 26,8 C 30,0 C 30,0 C 2,0 C 49 % 56 % 53 % 1010,4 hPa 0,0 l/m 5,5 km/h (1 Bft) O-NO 67 0 min 0,0 UV-I 16,3 C 30,0 C 7,1 km/h (2 Bft)
26.07.2014 14:55 28,0 C 23,6 C 26,8 C 29,8 C 29,8 C 1,8 C 49 % 56 % 47 % 1010,9 hPa 0,0 l/m 4,2 km/h (1 Bft) O-NO 67 0 min 0,0 UV-I 16,3 C 29,8 C 3,1 km/h (1 Bft)
26.07.2014 15:00 27,9 C 23,6 C 26,7 C 29,5 C 29,5 C 1,6 C 49 % 55 % 42 % 1010,9 hPa 0,0 l/m 4,2 km/h (1 Bft) N-NO 22 0 min 0,0 UV-I 16,2 C 29,5 C 4,3 km/h (1 Bft)
26.07.2014 15:05 27,8 C 23,6 C 26,6 C 29,1 C 29,1 C 1,3 C 50 % 56 % 34 % 1010,9 hPa 0,0 l/m 4,8 km/h (1 Bft) W 270 0 min 0,0 UV-I 16,4 C 29,1 C 4,8 km/h (1 Bft)
26.07.2014 15:10 27,7 C 23,6 C 26,4 C 28,6 C 28,6 C 0,9 C 50 % 57 % 24 % 1010,9 hPa 0,0 l/m 4,7 km/h (1 Bft) O-SO 112 0 min 0,0 UV-I 16,3 C 28,6 C 4,3 km/h (1 Bft)
26.07.2014 15:15 27,5 C 23,6 C 26,3 C 28,4 C 28,4 C 0,9 C 52 % 58 % 24 % 1010,6 hPa 0,0 l/m 3,9 km/h (1 Bft) O-SO 112 0 min 0,0 UV-I 16,7 C 28,4 C 3,9 km/h (1 Bft)
26.07.2014 15:20 27,5 C 23,7 C 26,2 C 28,1 C 28,1 C 0,6 C 52 % 58 % 16 % 1010,6 hPa 0,0 l/m 3,5 km/h (1 Bft) O-NO 67 0 min 0,0 UV-I 16,7 C 28,1 C 4,7 km/h (1 Bft)
26.07.2014 15:25 27,5 C 23,7 C 26,3 C 28,0 C 28,0 C 0,5 C 51 % 58 % 13 % 1010,6 hPa 0,0 l/m 4,0 km/h (1 Bft) O-NO 67 0 min 0,0 UV-I 16,4 C 28,0 C 6,6 km/h (2 Bft)
26.07.2014 15:30 27,5 C 23,7 C 26,1 C 27,8 C 27,8 C 0,3 C 52 % 58 % 8 % 1010,6 hPa 0,0 l/m 4,8 km/h (1 Bft) O-NO 67 0 min 0,0 UV-I 16,7 C 27,8 C 1,9 km/h (1 Bft)
26.07.2014 15:35 27,3 C 23,7 C 26,1 C 27,7 C 27,7 C 0,4 C 52 % 59 % 11 % 1011,1 hPa 0,0 l/m 4,0 km/h (1 Bft) O-NO 67 0 min 0,0 UV-I 16,6 C 27,7 C 3,9 km/h (1 Bft)
26.07.2014 15:40 27,2 C 23,7 C 25,7 C 27,5 C 27,5 C 0,3 C 53 % 60 % 8 % 1011,1 hPa 0,0 l/m 2,7 km/h (1 Bft) O-NO 67 0 min 0,0 UV-I 16,8 C 27,5 C 2,9 km/h (1 Bft)
26.07.2014 15:45 27,1 C 23,7 C 25,6 C 27,3 C 27,3 C 0,2 C 53 % 62 % 5 % 1011,1 hPa 0,0 l/m 2,6 km/h (1 Bft) O-NO 67 0 min 0,0 UV-I 16,7 C 27,3 C 3,2 km/h (1 Bft)
26.07.2014 15:50 27,1 C 23,7 C 25,3 C 27,1 C 27,1 C 0,0 C 54 % 62 % 0 % 1011,1 hPa 0,0 l/m 1,1 km/h (1 Bft) O-NO 67 0 min 0,0 UV-I 17,0 C 27,1 C 0,0 km/h (0 Bft)
26.07.2014 15:55 26,9 C 23,8 C 25,3 C 27,0 C 27,0 C 0,1 C 54 % 61 % 3 % 1010,9 hPa 0,0 l/m 0,5 km/h (0 Bft) NO 45 0 min 0,0 UV-I 16,8 C 27,0 C 0,0 km/h (0 Bft)
26.07.2014 16:00 26,8 C 23,8 C 25,0 C 26,9 C 26,9 C 0,1 C 56 % 62 % 3 % 1010,9 hPa 0,0 l/m 0,0 km/h (0 Bft) O-SO 112 0 min 0,0 UV-I 17,3 C 26,9 C 0,0 km/h (0 Bft)
26.07.2014 16:05 26,8 C 23,8 C 24,9 C 26,8 C 26,7 C 0,0 C 54 % 61 % 0 % 1010,9 hPa 0,0 l/m 0,0 km/h (0 Bft) NO 45 0 min 0,0 UV-I 16,7 C 26,7 C 0,0 km/h (0 Bft)
26.07.2014 16:10 26,6 C 23,9 C 24,8 C 26,7 C 26,7 C 0,1 C 54 % 61 % 3 % 1010,9 hPa 0,0 l/m 0,0 km/h (0 Bft) NO 45 0 min 0,0 UV-I 16,5 C 26,7 C 0,0 km/h (0 Bft)
26.07.2014 16:15 26,6 C 23,9 C 24,7 C 26,6 C 26,5 C 0,0 C 54 % 61 % 0 % 1010,9 hPa 0,0 l/m 0,0 km/h (0 Bft) O-NO 67 0 min 0,0 UV-I 16,5 C 26,5 C 0,0 km/h (0 Bft)
26.07.2014 16:20 26,4 C 23,9 C 24,7 C 26,4 C 26,4 C 0,0 C 54 % 61 % 0 % 1010,9 hPa 0,0 l/m 0,0 km/h (0 Bft) O-NO 67 0 min 0,0 UV-I 16,3 C 26,4 C 0,0 km/h (0 Bft)
26.07.2014 16:25 26,4 C 23,9 C 24,7 C 26,4 C 26,4 C 0,0 C 54 % 61 % 0 % 1010,9 hPa 0,0 l/m 0,0 km/h (0 Bft) N-NO 22 0 min 0,0 UV-I 16,3 C 26,4 C 0,0 km/h (0 Bft)
26.07.2014 16:30 26,3 C 23,9 C 24,6 C 26,5 C 26,5 C 0,2 C 55 % 61 % 5 % 1010,9 hPa 0,0 l/m 0,0 km/h (0 Bft) N-NO 22 0 min 0,0 UV-I 16,5 C 26,5 C 0,0 km/h (0 Bft)
26.07.2014 16:35 26,3 C 24,0 C 24,5 C 26,7 C 26,7 C 0,4 C 55 % 61 % 11 % 1010,7 hPa 0,0 l/m 0,0 km/h (0 Bft) N-NO 22 0 min 0,0 UV-I 16,5 C 26,7 C 0,0 km/h (0 Bft)
26.07.2014 16:40 26,4 C 24,0 C 24,7 C 26,9 C 26,9 C 0,5 C 55 % 61 % 13 % 1010,7 hPa 0,0 l/m 0,0 km/h (0 Bft) N-NO 22 0 min 0,0 UV-I 16,6 C 26,9 C 0,0 km/h (0 Bft)
26.07.2014 16:45 26,4 C 24,0 C 24,6 C 27,1 C 27,1 C 0,7 C 55 % 62 % 18 % 1010,7 hPa 0,0 l/m 0,0 km/h (0 Bft) N-NO 22 0 min 0,0 UV-I 16,6 C 27,1 C 0,0 km/h (0 Bft)
26.07.2014 16:50 26,4 C 24,0 C 24,7 C 27,2 C 27,2 C 0,8 C 57 % 63 % 21 % 1010,7 hPa 0,0 l/m 0,0 km/h (0 Bft) N-NW 337 0 min 0,0 UV-I 17,2 C 27,2 C 1,8 km/h (1 Bft)
26.07.2014 16:55 26,5 C 24,0 C 24,7 C 27,3 C 27,3 C 0,8 C 57 % 64 % 21 % 1010,7 hPa 0,0 l/m 0,2 km/h (0 Bft) N-NW 337 0 min 0,0 UV-I 17,3 C 27,3 C 0,0 km/h (0 Bft)
26.07.2014 17:00 26,5 C 24,1 C 24,7 C 27,4 C 27,4 C 0,9 C 58 % 66 % 24 % 1010,7 hPa 0,0 l/m 0,5 km/h (0 Bft) O-NO 67 0 min 0,0 UV-I 17,5 C 27,4 C 2,3 km/h (1 Bft)
26.07.2014 17:05 26,4 C 24,1 C 24,7 C 27,2 C 27,2 C 0,8 C 58 % 66 % 21 % 1010,7 hPa 0,0 l/m 1,0 km/h (0 Bft) O-NO 67 0 min 0,0 UV-I 17,5 C 27,2 C 0,0 km/h (0 Bft)
26.07.2014 17:10 26,5 C 24,1 C 24,8 C 27,1 C 27,1 C 0,6 C 61 % 67 % 16 % 1010,7 hPa 0,0 l/m 0,8 km/h (0 Bft) N-NO 22 0 min 0,0 UV-I 18,4 C 27,1 C 0,0 km/h (0 Bft)
26.07.2014 17:15 26,4 C 24,1 C 24,8 C 27,3 C 27,3 C 0,9 C 62 % 69 % 24 % 1010,2 hPa 0,0 l/m 0,0 km/h (0 Bft) N-NO 22 0 min 0,0 UV-I 18,5 C 27,3 C 0,0 km/h (0 Bft)
26.07.2014 17:20 26,5 C 24,2 C 25,1 C 27,7 C 27,7 C 1,2 C 60 % 66 % 32 % 1010,2 hPa 0,0 l/m 0,5 km/h (0 Bft) N-NO 22 0 min 0,0 UV-I 18,1 C 27,7 C 0,0 km/h (0 Bft)
26.07.2014 17:25 26,7 C 24,3 C 25,2 C 28,1 C 28,1 C 1,4 C 59 % 65 % 37 % 1010,2 hPa 0,0 l/m 1,0 km/h (0 Bft) N-NW 337 0 min 0,0 UV-I 18,0 C 28,1 C 2,3 km/h (1 Bft)
26.07.2014 17:30 26,7 C 24,3 C 25,4 C 28,8 C 28,8 C 2,1 C 58 % 64 % 55 % 1010,2 hPa 0,0 l/m 1,1 km/h (1 Bft) N-NW 337 0 min 0,0 UV-I 17,7 C 28,8 C 1,6 km/h (1 Bft)
26.07.2014 17:35 26,9 C 24,3 C 25,6 C 29,3 C 29,3 C 2,4 C 57 % 64 % 63 % 1010,4 hPa 0,0 l/m 1,0 km/h (0 Bft) W 270 0 min 0,0 UV-I 17,6 C 29,3 C 1,6 km/h (1 Bft)
26.07.2014 17:40 27,1 C 24,3 C 26,0 C 30,5 C 30,5 C 3,4 C 55 % 61 % 89 % 1010,4 hPa 0,0 l/m 0,8 km/h (0 Bft) W-NW 292 5 min 0,0 UV-I 17,3 C 30,5 C 0,0 km/h (0 Bft)
26.07.2014 17:45 27,4 C 24,3 C 26,2 C 31,9 C 31,9 C 4,5 C 54 % 60 % 100 % 1010,4 hPa 0,0 l/m 1,0 km/h (0 Bft) W-SW 247 5 min 0,0 UV-I 17,3 C 31,9 C 1,9 km/h (1 Bft)
26.07.2014 17:50 27,7 C 24,2 C 26,4 C 33,2 C 33,2 C 5,5 C 56 % 63 % 100 % 1010,4 hPa 0,0 l/m 1,4 km/h (1 Bft) NW 315 5 min 0,0 UV-I 18,1 C 33,2 C 4,5 km/h (1 Bft)
26.07.2014 17:55 27,8 C 24,2 C 26,5 C 33,8 C 33,8 C 6,0 C 57 % 64 % 100 % 1010,4 hPa 0,0 l/m 2,3 km/h (1 Bft) S-SW 202 5 min 0,0 UV-I 18,5 C 33,8 C 4,8 km/h (1 Bft)
26.07.2014 18:00 27,9 C 24,3 C 26,7 C 34,0 C 34,0 C 6,1 C 57 % 64 % 100 % 1010,4 hPa 0,0 l/m 2,9 km/h (1 Bft) W 270 5 min 0,0 UV-I 18,6 C 34,0 C 2,6 km/h (1 Bft)
26.07.2014 18:05 27,9 C 24,3 C 26,7 C 33,9 C 33,9 C 6,0 C 56 % 64 % 100 % 1010,4 hPa 0,0 l/m 3,4 km/h (1 Bft) SW 225 5 min 0,0 UV-I 18,3 C 33,9 C 2,3 km/h (1 Bft)
26.07.2014 18:10 27,9 C 24,3 C 26,7 C 33,5 C 33,5 C 5,6 C 57 % 65 % 100 % 1010,4 hPa 0,0 l/m 2,9 km/h (1 Bft) W-SW 247 5 min 0,0 UV-I 18,6 C 33,5 C 2,1 km/h (1 Bft)
26.07.2014 18:15 27,8 C 24,3 C 26,6 C 33,4 C 33,4 C 5,6 C 57 % 65 % 100 % 1010,2 hPa 0,0 l/m 2,6 km/h (1 Bft) S-SO 157 5 min 0,0 UV-I 18,5 C 33,4 C 0,0 km/h (0 Bft)
26.07.2014 18:20 27,9 C 24,3 C 26,5 C 33,6 C 33,6 C 5,7 C 57 % 64 % 100 % 1010,2 hPa 0,0 l/m 1,1 km/h (1 Bft) SW 225 5 min 0,0 UV-I 18,6 C 33,6 C 0,0 km/h (0 Bft)
26.07.2014 18:25 27,9 C 24,3 C 26,7 C 33,7 C 33,7 C 5,8 C 56 % 63 % 100 % 1010,2 hPa 0,0 l/m 0,5 km/h (0 Bft) NW 315 5 min 0,0 UV-I 18,3 C 33,7 C 2,4 km/h (1 Bft)
26.07.2014 18:30 27,9 C 24,3 C 26,6 C 33,7 C 33,7 C 5,8 C 56 % 62 % 100 % 1010,2 hPa 0,0 l/m 1,3 km/h (1 Bft) NW 315 5 min 0,0 UV-I 18,3 C 33,7 C 1,6 km/h (1 Bft)
26.07.2014 18:35 27,9 C 24,3 C 26,7 C 33,2 C 33,2 C 5,3 C 54 % 60 % 100 % 1009,8 hPa 0,0 l/m 1,6 km/h (1 Bft) NW 315 5 min 0,0 UV-I 17,7 C 33,2 C 3,2 km/h (1 Bft)
26.07.2014 18:40 27,9 C 24,4 C 26,5 C 32,3 C 32,3 C 4,4 C 54 % 60 % 100 % 1009,8 hPa 0,0 l/m 1,4 km/h (1 Bft) NO 45 5 min 0,0 UV-I 17,7 C 32,3 C 0,0 km/h (0 Bft)
26.07.2014 18:45 27,9 C 24,4 C 26,6 C 32,0 C 32,0 C 4,1 C 54 % 61 % 100 % 1009,8 hPa 0,0 l/m 1,1 km/h (1 Bft) W-NW 292 5 min 0,0 UV-I 17,7 C 32,0 C 0,0 km/h (0 Bft)
26.07.2014 18:50 28,0 C 24,4 C 26,5 C 31,7 C 31,7 C 3,7 C 54 % 60 % 97 % 1009,8 hPa 0,0 l/m 1,0 km/h (0 Bft) NW 315 5 min 0,0 UV-I 17,8 C 31,7 C 1,8 km/h (1 Bft)
26.07.2014 18:55 28,0 C 24,4 C 26,5 C 31,4 C 31,4 C 3,4 C 54 % 60 % 89 % 1009,9 hPa 0,0 l/m 1,1 km/h (1 Bft) NO 45 5 min 0,0 UV-I 17,8 C 31,4 C 0,0 km/h (0 Bft)
26.07.2014 19:00 27,9 C 24,4 C 26,2 C 30,5 C 30,5 C 2,6 C 54 % 61 % 68 % 1009,9 hPa 0,0 l/m 1,0 km/h (0 Bft) W-SW 247 0 min 0,0 UV-I 17,7 C 30,5 C 3,2 km/h (1 Bft)
26.07.2014 19:05 27,7 C 24,4 C 26,1 C 30,0 C 30,0 C 2,3 C 55 % 62 % 61 % 1009,9 hPa 0,0 l/m 1,0 km/h (0 Bft) W 270 0 min 0,0 UV-I 17,8 C 30,0 C 2,1 km/h (1 Bft)
26.07.2014 19:10 27,5 C 24,4 C 26,1 C 29,0 C 29,0 C 1,5 C 55 % 62 % 39 % 1009,9 hPa 0,0 l/m 0,8 km/h (0 Bft) NW 315 0 min 0,0 UV-I 17,6 C 29,0 C 0,0 km/h (0 Bft)
26.07.2014 19:15 27,4 C 24,4 C 25,9 C 28,6 C 28,6 C 1,2 C 55 % 62 % 32 % 1010,1 hPa 0,0 l/m 0,8 km/h (0 Bft) W 270 0 min 0,0 UV-I 17,5 C 28,6 C 4,2 km/h (1 Bft)
26.07.2014 19:20 27,4 C 24,4 C 25,9 C 28,2 C 28,2 C 0,8 C 56 % 63 % 21 % 1010,1 hPa 0,0 l/m 0,6 km/h (0 Bft) O-NO 67 0 min 0,0 UV-I 17,8 C 28,2 C 0,0 km/h (0 Bft)
26.07.2014 19:25 27,3 C 24,4 C 25,6 C 28,0 C 28,0 C 0,7 C 56 % 64 % 18 % 1010,1 hPa 0,0 l/m 0,5 km/h (0 Bft) O-NO 67 0 min 0,0 UV-I 17,7 C 28,0 C 0,0 km/h (0 Bft)
26.07.2014 19:30 27,2 C 24,4 C 25,4 C 27,6 C 27,6 C 0,4 C 56 % 63 % 11 % 1010,1 hPa 0,0 l/m 0,3 km/h (0 Bft) NW 315 0 min 0,0 UV-I 17,6 C 27,6 C 1,9 km/h (1 Bft)
26.07.2014 19:35 27,1 C 24,4 C 25,5 C 27,3 C 27,3 C 0,2 C 56 % 63 % 5 % 1010,0 hPa 0,0 l/m 0,3 km/h (0 Bft) N-NO 22 0 min 0,0 UV-I 17,5 C 27,3 C 0,0 km/h (0 Bft)
26.07.2014 19:40 26,9 C 24,6 C 25,1 C 26,9 C 26,9 C 0,0 C 57 % 65 % 0 % 1010,0 hPa 0,0 l/m 0,2 km/h (0 Bft) N-NO 22 0 min 0,0 UV-I 17,6 C 26,9 C 1,8 km/h (1 Bft)
26.07.2014 19:45 26,9 C 24,6 C 25,0 C 26,8 C 26,5 C 0,0 C 58 % 65 % 0 % 1010,0 hPa 0,0 l/m 0,2 km/h (0 Bft) O-NO 67 0 min 0,0 UV-I 17,9 C 26,5 C 0,0 km/h (0 Bft)
26.07.2014 19:50 26,5 C 24,6 C 24,8 C 26,3 C 26,0 C 0,0 C 58 % 66 % 0 % 1010,0 hPa 0,0 l/m 0,2 km/h (0 Bft) N-NW 337 0 min 0,0 UV-I 17,5 C 26,0 C 0,0 km/h (0 Bft)
26.07.2014 19:55 26,4 C 24,6 C 24,7 C 26,1 C 25,6 C 0,0 C 58 % 67 % 0 % 1010,1 hPa 0,0 l/m 0,0 km/h (0 Bft) N 360 0 min 0,0 UV-I 17,5 C 25,6 C 0,0 km/h (0 Bft)
26.07.2014 20:00 26,1 C 24,6 C 24,4 C 25,8 C 25,1 C 0,0 C 59 % 67 % 0 % 1010,1 hPa 0,0 l/m 0,0 km/h (0 Bft) N-NW 337 0 min 0,0 UV-I 17,4 C 25,1 C 0,0 km/h (0 Bft)
26.07.2014 20:05 25,8 C 24,6 C 24,3 C 25,5 C 24,9 C 0,0 C 60 % 67 % 0 % 1010,1 hPa 0,0 l/m 0,8 km/h (0 Bft) O-SO 112 0 min 0,0 UV-I 17,4 C 24,9 C 2,1 km/h (1 Bft)
26.07.2014 20:10 25,7 C 24,6 C 24,0 C 25,3 C 24,6 C 0,0 C 61 % 68 % 0 % 1010,1 hPa 0,0 l/m 0,8 km/h (0 Bft) N-NO 22 0 min 0,0 UV-I 17,6 C 24,6 C 0,0 km/h (0 Bft)
26.07.2014 20:15 25,4 C 24,6 C 23,9 C 25,1 C 24,5 C 0,0 C 61 % 69 % 0 % 1010,2 hPa 0,0 l/m 0,5 km/h (0 Bft) N-NW 337 0 min 0,0 UV-I 17,3 C 24,5 C 3,1 km/h (1 Bft)
26.07.2014 20:20 25,2 C 24,6 C 23,9 C 24,9 C 24,2 C 0,0 C 62 % 69 % 0 % 1010,2 hPa 0,0 l/m 0,5 km/h (0 Bft) NW 315 0 min 0,0 UV-I 17,4 C 24,2 C 2,1 km/h (1 Bft)
26.07.2014 20:25 25,0 C 24,6 C 23,7 C 24,7 C 24,0 C 0,0 C 62 % 70 % 0 % 1010,2 hPa 0,0 l/m 0,5 km/h (0 Bft) NO 45 0 min 0,0 UV-I 17,2 C 24,0 C 0,0 km/h (0 Bft)
26.07.2014 20:30 24,8 C 24,6 C 23,3 C 24,4 C 23,6 C 0,0 C 63 % 71 % 0 % 1010,2 hPa 0,0 l/m 0,0 km/h (0 Bft) NO 45 0 min 0,0 UV-I 17,3 C 23,6 C 0,0 km/h (0 Bft)
26.07.2014 20:35 24,5 C 24,6 C 23,0 C 24,1 C 23,4 C 0,0 C 64 % 71 % 0 % 1010,2 hPa 0,0 l/m 0,0 km/h (0 Bft) O-NO 67 0 min 0,0 UV-I 17,2 C 23,4 C 0,0 km/h (0 Bft)
26.07.2014 20:40 24,2 C 24,6 C 22,9 C 23,8 C 23,1 C 0,0 C 65 % 72 % 0 % 1010,2 hPa 0,0 l/m 0,0 km/h (0 Bft) O-NO 67 0 min 0,0 UV-I 17,2 C 23,1 C 0,0 km/h (0 Bft)
26.07.2014 20:45 24,1 C 24,6 C 22,7 C 23,7 C 22,9 C 0,0 C 66 % 73 % 0 % 1010,2 hPa 0,0 l/m 0,0 km/h (0 Bft) O-NO 67 0 min 0,0 UV-I 17,3 C 22,9 C 0,0 km/h (0 Bft)
26.07.2014 20:50 23,9 C 24,6 C 22,5 C 23,5 C 22,6 C 0,0 C 67 % 74 % 0 % 1010,2 hPa 0,0 l/m 0,0 km/h (0 Bft) NO 45 0 min 0,0 UV-I 17,4 C 22,6 C 0,0 km/h (0 Bft)
26.07.2014 20:55 23,6 C 24,6 C 22,4 C 23,2 C 22,4 C 0,0 C 67 % 74 % 0 % 1010,3 hPa 0,0 l/m 0,0 km/h (0 Bft) NO 45 0 min 0,0 UV-I 17,1 C 22,4 C 0,0 km/h (0 Bft)
26.07.2014 21:00 23,4 C 24,6 C 22,1 C 23,0 C 22,2 C 0,0 C 68 % 75 % 0 % 1010,3 hPa 0,0 l/m 0,0 km/h (0 Bft) O-NO 67 0 min 0,0 UV-I 17,1 C 22,2 C 0,0 km/h (0 Bft)
26.07.2014 21:05 23,3 C 24,6 C 21,9 C 22,9 C 22,0 C 0,0 C 69 % 76 % 0 % 1010,3 hPa 0,0 l/m 0,0 km/h (0 Bft) O-NO 67 0 min 0,0 UV-I 17,3 C 22,0 C 0,0 km/h (0 Bft)
26.07.2014 21:10 23,1 C 24,6 C 21,9 C 22,6 C 21,7 C 0,0 C 70 % 76 % 0 % 1010,3 hPa 0,0 l/m 0,0 km/h (0 Bft) O-NO 67 0 min 0,0 UV-I 17,3 C 21,7 C 0,0 km/h (0 Bft)
26.07.2014 21:15 22,9 C 24,6 C 21,7 C 22,4 C 21,5 C 0,0 C 70 % 76 % 0 % 1010,2 hPa 0,0 l/m 0,0 km/h (0 Bft) O-NO 67 0 min 0,0 UV-I 17,1 C 21,5 C 0,0 km/h (0 Bft)
26.07.2014 21:20 22,7 C 24,6 C 21,6 C 22,1 C 21,0 C 0,0 C 71 % 77 % 0 % 1010,2 hPa 0,0 l/m 0,0 km/h (0 Bft) O-NO 67 0 min 0,0 UV-I 17,2 C 21,0 C 0,0 km/h (0 Bft)
26.07.2014 21:25 22,4 C 24,6 C 21,5 C 21,9 C 20,9 C 0,0 C 72 % 78 % 0 % 1010,2 hPa 0,0 l/m 0,0 km/h (0 Bft) O-NO 67 0 min 0,0 UV-I 17,1 C 20,9 C 0,0 km/h (0 Bft)
26.07.2014 21:30 22,3 C 24,6 C 21,5 C 21,7 C 20,5 C 0,0 C 73 % 78 % 0 % 1010,2 hPa 0,0 l/m 0,0 km/h (0 Bft) O-NO 67 0 min 0,0 UV-I 17,2 C 20,5 C 0,0 km/h (0 Bft)
26.07.2014 21:35 22,1 C 24,7 C 21,2 C 21,5 C 20,3 C 0,0 C 73 % 78 % 0 % 1010,4 hPa 0,0 l/m 0,0 km/h (0 Bft) O-NO 67 0 min 0,0 UV-I 17,0 C 20,3 C 0,0 km/h (0 Bft)
26.07.2014 21:40 21,8 C 24,8 C 21,1 C 21,3 C 20,2 C 0,0 C 74 % 79 % 0 % 1010,4 hPa 0,0 l/m 0,0 km/h (0 Bft) O-NO 67 0 min 0,0 UV-I 17,0 C 20,2 C 0,0 km/h (0 Bft)
26.07.2014 21:45 21,7 C 24,8 C 20,9 C 21,1 C 20,0 C 0,0 C 75 % 79 % 0 % 1010,4 hPa 0,0 l/m 0,0 km/h (0 Bft) O-NO 67 0 min 0,0 UV-I 17,1 C 20,0 C 0,0 km/h (0 Bft)
26.07.2014 21:50 21,4 C 24,8 C 20,7 C 20,9 C 20,0 C 0,0 C 76 % 80 % 0 % 1010,4 hPa 0,0 l/m 0,0 km/h (0 Bft) O-NO 67 0 min 0,0 UV-I 17,0 C 20,0 C 0,0 km/h (0 Bft)
26.07.2014 21:55 21,3 C 24,8 C 20,7 C 20,9 C 20,0 C 0,0 C 77 % 80 % 0 % 1010,7 hPa 0,0 l/m 0,0 km/h (0 Bft) O-NO 67 0 min 0,0 UV-I 17,1 C 20,0 C 0,0 km/h (0 Bft)
26.07.2014 22:00 21,2 C 24,8 C 20,5 C 20,8 C 20,0 C 0,0 C 78 % 81 % 0 % 1010,7 hPa 0,0 l/m 0,0 km/h (0 Bft) O-NO 67 0 min 0,0 UV-I 17,2 C 20,0 C 0,0 km/h (0 Bft)
26.07.2014 22:05 21,1 C 24,8 C 20,5 C 20,7 C 19,9 C 0,0 C 78 % 81 % 0 % 1010,7 hPa 0,0 l/m 0,0 km/h (0 Bft) W 270 0 min 0,0 UV-I 17,1 C 19,9 C 0,0 km/h (0 Bft)
26.07.2014 22:10 20,9 C 24,8 C 20,4 C 20,5 C 19,6 C 0,0 C 78 % 81 % 0 % 1010,7 hPa 0,0 l/m 0,0 km/h (0 Bft) W-SW 247 0 min 0,0 UV-I 16,9 C 19,6 C 0,0 km/h (0 Bft)
26.07.2014 22:15 20,9 C 24,8 C 20,3 C 20,4 C 19,4 C 0,0 C 78 % 82 % 0 % 1010,5 hPa 0,0 l/m 0,0 km/h (0 Bft) N-NW 337 0 min 0,0 UV-I 16,9 C 19,4 C 0,0 km/h (0 Bft)
26.07.2014 22:20 20,7 C 24,8 C 20,3 C 20,2 C 19,3 C 0,0 C 79 % 82 % 0 % 1010,5 hPa 0,0 l/m 0,0 km/h (0 Bft) NW 315 0 min 0,0 UV-I 16,9 C 19,3 C 0,0 km/h (0 Bft)
26.07.2014 22:25 20,5 C 24,8 C 20,2 C 20,0 C 19,1 C 0,0 C 80 % 82 % 0 % 1010,5 hPa 0,0 l/m 0,0 km/h (0 Bft) NW 315 0 min 0,0 UV-I 16,9 C 19,1 C 0,0 km/h (0 Bft)
26.07.2014 22:30 20,4 C 24,8 C 20,1 C 19,9 C 18,9 C 0,0 C 80 % 82 % 0 % 1010,5 hPa 0,0 l/m 0,0 km/h (0 Bft) SW 225 0 min 0,0 UV-I 16,8 C 18,9 C 0,0 km/h (0 Bft)
26.07.2014 22:35 20,3 C 24,8 C 20,0 C 19,8 C 18,8 C 0,0 C 80 % 82 % 0 % 1010,8 hPa 0,0 l/m 0,0 km/h (0 Bft) W-SW 247 0 min 0,0 UV-I 16,7 C 18,8 C 0,0 km/h (0 Bft)
26.07.2014 22:40 20,1 C 24,8 C 19,9 C 19,6 C 18,7 C 0,0 C 80 % 82 % 0 % 1010,8 hPa 0,0 l/m 0,0 km/h (0 Bft) W-SW 247 0 min 0,0 UV-I 16,5 C 18,7 C 0,0 km/h (0 Bft)
26.07.2014 22:45 20,0 C 24,8 C 19,9 C 19,5 C 18,5 C 0,0 C 81 % 83 % 0 % 1010,8 hPa 0,0 l/m 0,0 km/h (0 Bft) W-SW 247 0 min 0,0 UV-I 16,6 C 18,5 C 0,0 km/h (0 Bft)
26.07.2014 22:50 19,9 C 25,0 C 19,7 C 19,4 C 18,4 C 0,0 C 81 % 83 % 0 % 1010,8 hPa 0,0 l/m 0,0 km/h (0 Bft) W-SW 247 0 min 0,0 UV-I 16,5 C 18,4 C 0,0 km/h (0 Bft)
26.07.2014 22:55 19,9 C 24,8 C 19,6 C 19,4 C 18,3 C 0,0 C 81 % 83 % 0 % 1010,7 hPa 0,0 l/m 0,0 km/h (0 Bft) N-NW 337 0 min 0,0 UV-I 16,5 C 18,3 C 0,0 km/h (0 Bft)
26.07.2014 23:00 19,7 C 24,8 C 19,7 C 19,2 C 18,3 C 0,0 C 82 % 84 % 0 % 1010,7 hPa 0,0 l/m 0,0 km/h (0 Bft) W 270 0 min 0,0 UV-I 16,5 C 18,3 C 0,0 km/h (0 Bft)
26.07.2014 23:05 19,7 C 24,8 C 19,6 C 19,2 C 18,2 C 0,0 C 82 % 84 % 0 % 1010,7 hPa 0,0 l/m 0,0 km/h (0 Bft) S-SW 202 0 min 0,0 UV-I 16,5 C 18,2 C 0,0 km/h (0 Bft)
26.07.2014 23:10 19,5 C 25,0 C 19,5 C 19,1 C 18,2 C 0,0 C 83 % 84 % 0 % 1010,7 hPa 0,0 l/m 0,0 km/h (0 Bft) O 90 0 min 0,0 UV-I 16,5 C 18,2 C 0,0 km/h (0 Bft)
26.07.2014 23:15 19,4 C 25,0 C 19,4 C 19,0 C 18,2 C 0,0 C 83 % 84 % 0 % 1010,9 hPa 0,0 l/m 0,0 km/h (0 Bft) O-NO 67 0 min 0,0 UV-I 16,4 C 18,2 C 0,0 km/h (0 Bft)
26.07.2014 23:20 19,2 C 25,0 C 19,3 C 18,9 C 18,2 C 0,0 C 83 % 84 % 0 % 1010,9 hPa 0,0 l/m 0,0 km/h (0 Bft) N-NO 22 0 min 0,0 UV-I 16,2 C 18,2 C 0,0 km/h (0 Bft)
26.07.2014 23:25 19,2 C 25,0 C 19,2 C 18,8 C 18,1 C 0,0 C 83 % 85 % 0 % 1010,9 hPa 0,0 l/m 0,0 km/h (0 Bft) O 90 0 min 0,0 UV-I 16,2 C 18,1 C 0,0 km/h (0 Bft)
26.07.2014 23:30 19,1 C 25,0 C 19,1 C 18,7 C 18,0 C 0,0 C 84 % 85 % 0 % 1010,9 hPa 0,0 l/m 0,0 km/h (0 Bft) SW 225 0 min 0,0 UV-I 16,3 C 18,0 C 0,0 km/h (0 Bft)
26.07.2014 23:35 18,9 C 25,0 C 19,1 C 18,5 C 17,8 C 0,0 C 84 % 85 % 0 % 1010,8 hPa 0,0 l/m 0,0 km/h (0 Bft) S 180 0 min 0,0 UV-I 16,1 C 17,8 C 0,0 km/h (0 Bft)
26.07.2014 23:40 18,8 C 24,8 C 19,1 C 18,4 C 17,7 C 0,0 C 84 % 85 % 0 % 1010,8 hPa 0,0 l/m 0,0 km/h (0 Bft) SW 225 0 min 0,0 UV-I 16,0 C 17,7 C 0,0 km/h (0 Bft)
26.07.2014 23:45 18,6 C 24,8 C 18,9 C 18,3 C 17,6 C 0,0 C 84 % 85 % 0 % 1010,8 hPa 0,0 l/m 0,0 km/h (0 Bft) S 180 0 min 0,0 UV-I 15,8 C 17,6 C 0,0 km/h (0 Bft)
26.07.2014 23:50 18,5 C 24,8 C 18,8 C 18,2 C 17,5 C 0,0 C 84 % 85 % 0 % 1010,8 hPa 0,0 l/m 0,0 km/h (0 Bft) S 180 0 min 0,0 UV-I 15,7 C 17,5 C 0,0 km/h (0 Bft)
26.07.2014 23:55 18,4 C 24,8 C 18,8 C 18,1 C 17,5 C 0,0 C 84 % 85 % 0 % 1010,8 hPa 0,0 l/m 0,0 km/h (0 Bft) SW 225 0 min 0,0 UV-I 15,6 C 17,5 C 0,0 km/h (0 Bft)
27.07.2014 00:00 18,2 C 24,8 C 18,8 C 18,0 C 17,6 C 0,0 C 84 % 85 % 0 % 1010,8 hPa 0,0 l/m 0,2 km/h (0 Bft) W-SW 247 0 min 0,0 UV-I 15,4 C 17,6 C 2,6 km/h (1 Bft)
27.07.2014 00:05 18,1 C 24,8 C 18,8 C 17,9 C 17,6 C 0,0 C 85 % 85 % 0 % 1010,8 hPa 0,0 l/m 0,3 km/h (0 Bft) S 180 0 min 0,0 UV-I 15,5 C 17,6 C 1,9 km/h (1 Bft)
27.07.2014 00:10 18,0 C 24,8 C 18,9 C 17,9 C 17,6 C 0,0 C 85 % 85 % 0 % 1010,8 hPa 0,0 l/m 0,2 km/h (0 Bft) S 180 0 min 0,0 UV-I 15,4 C 17,6 C 0,0 km/h (0 Bft)
27.07.2014 00:15 18,1 C 24,8 C 18,8 C 17,9 C 17,6 C 0,0 C 85 % 86 % 0 % 1010,9 hPa 0,0 l/m 0,0 km/h (0 Bft) O 90 0 min 0,0 UV-I 15,5 C 17,6 C 0,0 km/h (0 Bft)
27.07.2014 00:20 17,9 C 24,8 C 18,9 C 17,8 C 17,5 C 0,0 C 85 % 85 % 0 % 1010,9 hPa 0,0 l/m 0,0 km/h (0 Bft) SO 135 0 min 0,0 UV-I 15,3 C 17,5 C 0,0 km/h (0 Bft)
27.07.2014 00:25 17,9 C 24,8 C 18,7 C 17,7 C 17,4 C 0,0 C 85 % 85 % 0 % 1010,9 hPa 0,0 l/m 0,0 km/h (0 Bft) N-NW 337 0 min 0,0 UV-I 15,3 C 17,4 C 0,0 km/h (0 Bft)
27.07.2014 00:30 17,7 C 24,8 C 18,6 C 17,6 C 17,4 C 0,0 C 85 % 85 % 0 % 1010,9 hPa 0,0 l/m 0,0 km/h (0 Bft) S-SO 157 0 min 0,0 UV-I 15,1 C 17,4 C 0,0 km/h (0 Bft)
27.07.2014 00:35 17,6 C 24,8 C 18,4 C 17,5 C 17,3 C 0,0 C 85 % 85 % 0 % 1010,9 hPa 0,0 l/m 0,0 km/h (0 Bft) O-NO 67 0 min 0,0 UV-I 15,0 C 17,3 C 0,0 km/h (0 Bft)
27.07.2014 00:40 17,5 C 24,8 C 18,5 C 17,4 C 17,3 C 0,0 C 85 % 86 % 0 % 1010,9 hPa 0,0 l/m 0,0 km/h (0 Bft) N-NW 337 0 min 0,0 UV-I 14,9 C 17,3 C 0,0 km/h (0 Bft)
27.07.2014 00:45 17,5 C 24,8 C 18,3 C 17,4 C 17,2 C 0,0 C 85 % 86 % 0 % 1010,9 hPa 0,0 l/m 0,0 km/h (0 Bft) SO 135 0 min 0,0 UV-I 14,9 C 17,2 C 0,0 km/h (0 Bft)
_ Min-Zeit 06:10 10:30 06:05 05:50 05:50 02:00 14:45 14:40 01:00 18:35 - 01:00 - - - 01:00 05:55 05:50 01:00
Minimum _ 11,8 C 22,9 C 13,4 C 12,1 C 12,1 C 0,0 C 48 % 53 % 0 % 1009,8 hPa - 0,0 km/h (0 Bft) - - - 0,0 UV-I 10,3 C 12,1 C 0,0 km/h (0 Bft)
_ Max-Zeit 14:30 22:50 14:30 18:00 18:00 09:40 07:40 01:00 07:20 08:55 01:00 13:50 - - 05:40 07:35 18:00 18:00 14:40
Maximum _ 28,6 C 25,0 C 27,7 C 34,0 C 34,0 C 8,2 C 93 % 91 % 100 % 1011,9 hPa 0,0 l/m 6,0 km/h
O-NO (2 Bft)
- - 5 min 0,7 UV-I 18,6 C 34,0 C 12,7 km/h
NO (3 Bft)
Durchschnitt _ 20,5 C 23,9 C 20,3 C 22,3 C 22,2 C 1,9 C 74 % 78 % 38 % 1010,8 hPa #0,0 l/m 1,0 km/h (0 Bft) O-NO - #0 min. 0,0 UV-I 15,3 C 22,2 C 1,4 km/h (1 Bft)
2014 www.wetterstation-wechselburg.de